Taloyoak, Canada
Current Conditions -  °F | °C
As of 4:00 PM on Friday 31 Oct 2014 (Local Time) from CYYH Reporting Station
Few Clouds Few Clouds  
Wind Chill: -13°   Ceiling: Unl
Heat Index:   Visibility: 15mi
Dew Point: -2°   Wind: 7mph
Humidity: 92%   Direction: 160°SSE
Pressure: 30.18"   Gusts: NA
Location:  69.53°N, 93.53°W
Report Text: CYYH 312100Z 16006KT 15SM FEW020 FEW070 M18/M19 A3018 RMKSC1AC1 SLP226
Loading
Personal Weather Stations






























Interactive Weather Map
Tropical Storm Tracking
New forecast layout! Learn more

10-Day Weather Forecast

Advertisements
Track Severe Weather on mobile